createdAt,value
2023-03-21T00:01:05.772Z,8.10
2023-03-21T00:03:38.266Z,8.77
2023-03-21T00:06:09.512Z,6.90
2023-03-21T00:08:39.579Z,8.43
2023-03-21T00:11:12.060Z,9.73
2023-03-21T00:13:43.565Z,10.73
2023-03-21T00:16:24.790Z,12.30
2023-03-21T00:19:09.840Z,10.90
2023-03-21T00:24:32.130Z,8.40
2023-03-21T00:27:21.936Z,8.33
2023-03-21T00:29:52.280Z,8.33
2023-03-21T00:32:25.633Z,11.60
2023-03-21T00:35:11.901Z,8.90
2023-03-21T00:37:45.856Z,8.53
2023-03-21T00:40:26.345Z,7.70
2023-03-21T00:42:57.965Z,8.20
2023-03-21T00:45:29.300Z,8.50
2023-03-21T00:48:02.009Z,8.43
2023-03-21T00:50:32.505Z,8.30
2023-03-21T00:53:02.385Z,8.60
2023-03-21T00:55:32.147Z,13.17
2023-03-21T00:58:02.731Z,10.93
2023-03-21T01:00:33.920Z,12.90
2023-03-21T01:03:23.157Z,8.73
2023-03-21T01:06:07.772Z,9.33
2023-03-21T01:08:54.790Z,8.40
2023-03-21T01:11:26.856Z,8.00
2023-03-21T01:14:10.781Z,9.50
2023-03-21T01:16:48.577Z,6.83
2023-03-21T01:19:35.205Z,9.10
2023-03-21T01:22:13.157Z,8.37
2023-03-21T01:24:52.387Z,8.60
2023-03-21T01:27:25.414Z,18.63
2023-03-21T01:29:55.302Z,21.00
2023-03-21T01:32:25.720Z,23.47
2023-03-21T01:34:58.167Z,14.87
2023-03-21T01:37:28.504Z,20.73
2023-03-21T01:39:58.304Z,21.73
2023-03-21T01:42:29.017Z,20.53
2023-03-21T01:45:01.682Z,34.17
2023-03-21T01:47:39.889Z,17.30
2023-03-21T01:50:24.093Z,26.00
2023-03-21T01:53:09.746Z,41.70
2023-03-21T01:55:41.084Z,38.93
2023-03-21T01:58:22.763Z,23.90
2023-03-21T02:01:22.968Z,28.43
2023-03-21T02:03:57.225Z,17.00
2023-03-21T02:06:53.975Z,22.00
2023-03-21T02:09:40.551Z,17.20
2023-03-21T02:12:16.517Z,19.80
2023-03-21T02:14:50.845Z,13.90
2023-03-21T02:17:34.697Z,15.53
2023-03-21T02:20:45.369Z,9.70
2023-03-21T02:23:49.903Z,14.53
2023-03-21T02:26:57.979Z,9.40
2023-03-21T02:30:20.156Z,8.27
2023-03-21T02:33:31.819Z,8.77
2023-03-21T02:36:47.311Z,8.03
2023-03-21T02:39:30.679Z,8.50
2023-03-21T02:42:08.417Z,8.80
2023-03-21T02:44:44.353Z,10.70
2023-03-21T02:47:21.017Z,9.43
2023-03-21T02:49:57.453Z,10.40
2023-03-21T02:52:39.255Z,12.30
2023-03-21T02:55:19.065Z,9.37
2023-03-21T02:58:10.422Z,10.13
2023-03-21T03:00:46.160Z,10.47
2023-03-21T03:03:33.990Z,12.70
2023-03-21T03:06:07.380Z,12.03
2023-03-21T03:08:59.766Z,15.57
2023-03-21T03:11:37.688Z,10.00
2023-03-21T03:14:41.701Z,11.53
2023-03-21T03:17:27.291Z,24.70
2023-03-21T03:20:16.457Z,16.27
2023-03-21T03:22:56.600Z,10.90
2023-03-21T03:25:42.166Z,15.07
2023-03-21T03:28:22.989Z,8.80
2023-03-21T03:31:08.127Z,10.53
2023-03-21T03:33:49.412Z,8.63
2023-03-21T03:36:31.668Z,9.70
2023-03-21T03:39:09.114Z,9.50
2023-03-21T03:42:07.982Z,10.63
2023-03-21T03:44:44.777Z,9.00
2023-03-21T03:47:31.931Z,11.40
2023-03-21T03:50:09.746Z,8.67
2023-03-21T03:52:55.310Z,9.30
2023-03-21T03:55:28.779Z,12.90
2023-03-21T03:58:13.176Z,8.50
2023-03-21T04:00:53.174Z,12.00
2023-03-21T04:03:24.330Z,11.73
2023-03-21T04:05:55.173Z,11.90
2023-03-21T04:08:25.275Z,8.10
2023-03-21T04:10:58.994Z,14.00
2023-03-21T04:13:29.480Z,8.83
2023-03-21T04:16:13.007Z,9.30
2023-03-21T04:18:44.375Z,8.90
2023-03-21T04:21:15.621Z,12.87
2023-03-21T04:23:46.645Z,12.53
2023-03-21T04:26:16.531Z,11.90
2023-03-21T04:28:56.542Z,13.37
2023-03-21T04:31:31.204Z,13.57
2023-03-21T04:34:12.951Z,12.90
2023-03-21T04:36:49.581Z,10.60
2023-03-21T04:39:20.107Z,11.13
2023-03-21T04:41:52.983Z,9.17
2023-03-21T04:44:23.752Z,10.83
2023-03-21T04:46:56.844Z,10.93
2023-03-21T04:49:27.612Z,8.33
2023-03-21T04:51:57.446Z,9.47
2023-03-21T04:54:27.911Z,12.10
2023-03-21T04:56:57.698Z,8.90
2023-03-21T04:59:30.256Z,11.27
2023-03-21T05:02:03.029Z,10.80
2023-03-21T05:04:34.509Z,10.97
2023-03-21T05:07:04.295Z,13.70
2023-03-21T05:09:35.125Z,11.20
2023-03-21T05:12:06.681Z,9.63
2023-03-21T05:14:38.328Z,8.90
2023-03-21T05:17:15.520Z,10.23
2023-03-21T05:19:46.028Z,12.20
2023-03-21T05:22:19.238Z,8.73
2023-03-21T05:24:50.789Z,8.40
2023-03-21T05:27:36.987Z,8.20
2023-03-21T05:30:16.689Z,8.27
2023-03-21T05:32:51.082Z,11.27
2023-03-21T05:35:22.419Z,12.23
2023-03-21T05:37:53.195Z,10.17
2023-03-21T05:40:25.701Z,10.00
2023-03-21T05:42:59.144Z,10.73
2023-03-21T05:45:29.639Z,13.20
2023-03-21T05:48:02.196Z,11.50
2023-03-21T05:50:36.736Z,28.13
2023-03-21T05:53:17.415Z,22.90
2023-03-21T05:55:47.490Z,32.30
2023-03-21T05:58:32.532Z,56.87
2023-03-21T06:01:02.683Z,27.60
2023-03-21T06:03:38.309Z,17.30
2023-03-21T06:06:12.556Z,39.90
2023-03-21T06:08:49.525Z,56.10
2023-03-21T06:11:26.124Z,41.53
2023-03-21T06:14:05.188Z,83.07
2023-03-21T06:16:35.660Z,44.40
2023-03-21T06:19:08.237Z,33.07
2023-03-21T06:21:53.438Z,69.23
2023-03-21T06:24:24.502Z,28.17
2023-03-21T06:26:54.316Z,15.70
2023-03-21T06:29:24.922Z,12.20
2023-03-21T06:31:55.354Z,12.83
2023-03-21T06:34:28.740Z,10.20
2023-03-21T06:36:58.626Z,10.03
2023-03-21T06:39:34.213Z,11.50
2023-03-21T06:42:04.416Z,9.00
2023-03-21T06:44:35.501Z,8.67
2023-03-21T06:47:09.893Z,11.60
2023-03-21T06:49:43.873Z,8.57
2023-03-21T06:52:15.172Z,11.97
2023-03-21T06:54:45.484Z,13.27
2023-03-21T06:57:18.087Z,17.80
2023-03-21T06:59:48.485Z,12.67
2023-03-21T07:02:22.305Z,36.03
2023-03-21T07:05:15.744Z,10.87
2023-03-21T07:07:46.881Z,15.27
2023-03-21T07:10:16.776Z,9.10
2023-03-21T07:12:51.917Z,11.43
2023-03-21T07:15:33.689Z,10.70
2023-03-21T07:18:04.301Z,10.03
2023-03-21T07:20:39.158Z,9.70
2023-03-21T07:23:10.770Z,10.60
2023-03-21T07:28:09.356Z,9.60
2023-03-21T07:30:39.707Z,10.37
2023-03-21T07:33:10.124Z,10.90
2023-03-21T07:35:42.793Z,9.90
2023-03-21T07:38:14.729Z,7.40
2023-03-21T07:40:46.015Z,10.03
2023-03-21T07:43:16.331Z,10.10
2023-03-21T07:45:48.237Z,9.20
2023-03-21T07:48:19.150Z,11.53
2023-03-21T07:50:54.096Z,8.20
2023-03-21T07:53:23.990Z,10.10
2023-03-21T07:55:56.772Z,10.87
2023-03-21T07:58:27.261Z,9.40
2023-03-21T08:00:58.426Z,9.67
2023-03-21T08:03:29.917Z,10.53
2023-03-21T08:06:03.319Z,11.00
2023-03-21T08:08:33.508Z,10.20
2023-03-21T08:11:03.298Z,7.63
2023-03-21T08:13:33.146Z,10.30
2023-03-21T08:16:03.352Z,7.17
2023-03-21T08:18:33.177Z,9.40
2023-03-21T08:21:06.264Z,11.40
2023-03-21T08:23:36.449Z,6.60
2023-03-21T08:26:06.276Z,7.70
2023-03-21T08:28:36.726Z,7.23
2023-03-21T08:31:11.382Z,9.10
2023-03-21T08:33:41.504Z,10.17
2023-03-21T08:36:15.685Z,13.50
2023-03-21T08:38:46.246Z,10.00
2023-03-21T08:41:16.891Z,12.73
2023-03-21T08:43:46.672Z,12.10
2023-03-21T08:46:16.896Z,11.57
2023-03-21T08:48:46.962Z,9.10
2023-03-21T08:51:21.977Z,10.93
2023-03-21T08:53:52.175Z,14.37
2023-03-21T08:56:22.412Z,35.00
2023-03-21T08:58:52.429Z,12.20
2023-03-21T09:01:22.391Z,11.97
2023-03-21T09:03:52.154Z,11.27
2023-03-21T09:06:25.068Z,11.57
2023-03-21T09:08:55.190Z,10.50
2023-03-21T09:11:25.728Z,13.30
2023-03-21T09:13:55.752Z,11.10
2023-03-21T09:16:26.423Z,11.53
2023-03-21T09:18:57.140Z,11.57
2023-03-21T09:21:31.465Z,11.10
2023-03-21T09:24:01.917Z,11.60
2023-03-21T09:26:32.634Z,11.53
2023-03-21T09:29:06.066Z,9.70
2023-03-21T09:31:36.526Z,10.63
2023-03-21T09:34:06.734Z,11.13
2023-03-21T09:36:42.483Z,10.43
2023-03-21T09:39:12.812Z,11.33
2023-03-21T09:42:06.501Z,10.30
2023-03-21T09:44:48.317Z,10.60
2023-03-21T09:47:25.154Z,10.87
2023-03-21T09:50:13.631Z,10.30
2023-03-21T09:52:52.166Z,10.90
2023-03-21T09:55:26.833Z,12.47
2023-03-21T09:58:05.857Z,10.00
2023-03-21T10:00:40.390Z,12.23
2023-03-21T10:03:23.669Z,10.60
2023-03-21T10:05:57.552Z,12.00
2023-03-21T10:08:36.614Z,11.00
2023-03-21T10:11:13.089Z,12.20
2023-03-21T10:13:46.848Z,10.57
2023-03-21T10:16:19.655Z,11.20
2023-03-21T10:18:51.051Z,10.80
2023-03-21T10:24:22.591Z,10.53
2023-03-21T10:26:54.925Z,10.70
2023-03-21T10:29:28.770Z,9.73
2023-03-21T10:31:59.529Z,10.60
2023-03-21T10:34:34.909Z,12.07
2023-03-21T10:37:06.477Z,10.87
2023-03-21T10:39:42.770Z,10.60
2023-03-21T10:42:21.837Z,11.00
2023-03-21T10:44:54.144Z,10.77
2023-03-21T10:47:27.796Z,11.63
2023-03-21T10:50:13.270Z,11.30
2023-03-21T10:52:49.594Z,11.60
2023-03-21T10:55:31.340Z,12.07
2023-03-21T10:58:07.827Z,11.10
2023-03-21T11:00:41.703Z,11.70
2023-03-21T11:03:24.100Z,11.20
2023-03-21T11:05:58.914Z,10.50
2023-03-21T11:08:29.332Z,10.13
2023-03-21T11:11:05.784Z,10.50
2023-03-21T11:13:42.649Z,10.20
2023-03-21T11:16:15.903Z,11.53
2023-03-21T11:18:52.170Z,9.60
2023-03-21T11:21:29.631Z,9.30
2023-03-21T11:24:00.455Z,10.80
2023-03-21T11:26:36.897Z,9.20
2023-03-21T11:29:25.167Z,9.17
2023-03-21T11:31:56.013Z,9.87
2023-03-21T11:34:33.857Z,9.00
2023-03-21T11:37:06.979Z,10.33
2023-03-21T11:39:41.185Z,10.07
2023-03-21T11:42:34.060Z,9.77
2023-03-21T11:45:08.156Z,8.50
2023-03-21T11:47:38.927Z,9.10
2023-03-21T11:50:21.950Z,8.97
2023-03-21T11:53:18.512Z,9.30
2023-03-21T11:56:00.382Z,8.33
2023-03-21T11:58:45.181Z,8.60
2023-03-21T12:01:27.912Z,7.47
2023-03-21T12:04:20.002Z,8.07
2023-03-21T12:06:56.134Z,7.50
2023-03-21T12:09:37.256Z,7.90
2023-03-21T12:12:26.953Z,8.60
2023-03-21T12:15:15.619Z,7.90
2023-03-21T12:17:54.776Z,9.90
2023-03-21T12:20:33.359Z,9.20
2023-03-21T12:23:25.724Z,8.30
2023-03-21T12:26:01.508Z,9.33
2023-03-21T12:28:43.599Z,8.20
2023-03-21T12:31:25.241Z,8.67
2023-03-21T12:34:11.023Z,8.53
2023-03-21T12:36:55.567Z,9.63
2023-03-21T12:39:31.945Z,9.70
2023-03-21T12:42:35.502Z,10.03
2023-03-21T12:45:15.719Z,9.47
2023-03-21T12:47:55.799Z,9.40
2023-03-21T12:50:30.645Z,9.33
2023-03-21T12:53:04.613Z,8.97
2023-03-21T12:55:37.452Z,7.93
2023-03-21T12:58:14.495Z,7.80
2023-03-21T13:00:48.277Z,7.80
2023-03-21T13:03:33.565Z,9.17
2023-03-21T13:06:13.118Z,7.90
2023-03-21T13:08:46.337Z,8.13
2023-03-21T13:11:20.444Z,8.93
2023-03-21T13:13:52.761Z,8.20
2023-03-21T13:16:27.668Z,8.13
2023-03-21T13:19:05.858Z,7.97
2023-03-21T13:21:52.649Z,8.00
2023-03-21T13:24:29.912Z,8.50
2023-03-21T13:27:07.212Z,8.83
2023-03-21T13:29:47.585Z,9.37
2023-03-21T13:32:25.045Z,8.33
2023-03-21T13:35:04.018Z,8.60
2023-03-21T13:37:38.427Z,9.90
2023-03-21T13:40:12.973Z,8.90
2023-03-21T13:42:48.218Z,8.40
2023-03-21T13:45:29.690Z,9.93
2023-03-21T13:48:01.940Z,9.37
2023-03-21T13:50:56.626Z,9.80
2023-03-21T13:53:33.457Z,10.17
2023-03-21T13:56:24.470Z,9.63
2023-03-21T13:58:57.661Z,10.17
2023-03-21T14:01:43.850Z,9.20
2023-03-21T14:04:20.779Z,10.30
2023-03-21T14:06:59.535Z,10.60
2023-03-21T14:09:32.890Z,11.10
2023-03-21T14:12:07.813Z,10.00
2023-03-21T14:14:42.071Z,9.70
2023-03-21T14:17:16.257Z,10.13
2023-03-21T14:19:46.173Z,11.03
2023-03-21T14:22:19.272Z,11.17
2023-03-21T14:24:52.766Z,10.83
2023-03-21T14:27:23.548Z,11.90
2023-03-21T14:29:56.185Z,9.80
2023-03-21T14:32:29.969Z,10.87
2023-03-21T14:35:03.370Z,11.90
2023-03-21T14:37:41.209Z,11.13
2023-03-21T14:40:22.347Z,10.70
2023-03-21T14:42:54.199Z,11.10
2023-03-21T14:45:26.896Z,11.00
2023-03-21T14:48:01.701Z,11.90
2023-03-21T14:50:39.462Z,12.90
2023-03-21T14:53:18.166Z,12.43
2023-03-21T14:55:53.695Z,11.80
2023-03-21T14:58:23.898Z,11.70
2023-03-21T15:00:55.480Z,12.97
2023-03-21T15:03:28.448Z,12.53
2023-03-21T15:05:59.096Z,13.40
2023-03-21T15:08:32.801Z,12.47
2023-03-21T15:11:07.509Z,11.47
2023-03-21T15:13:40.446Z,11.50
2023-03-21T15:16:12.343Z,11.60
2023-03-21T15:18:45.030Z,11.17
2023-03-21T15:21:20.224Z,12.17
2023-03-21T15:23:56.535Z,8.97
2023-03-21T15:26:29.172Z,11.80
2023-03-21T15:29:02.453Z,9.70
2023-03-21T15:31:37.618Z,14.40
2023-03-21T15:34:08.506Z,14.10
2023-03-21T15:36:46.600Z,12.60
2023-03-21T15:39:21.678Z,9.30
2023-03-21T15:42:03.245Z,14.30
2023-03-21T15:44:35.195Z,11.23
2023-03-21T15:47:05.250Z,11.97
2023-03-21T15:49:37.077Z,10.57
2023-03-21T15:52:13.498Z,10.60
2023-03-21T15:54:50.323Z,11.47
2023-03-21T15:57:25.757Z,11.50
2023-03-21T16:00:05.894Z,11.70
2023-03-21T16:02:44.887Z,11.10
2023-03-21T16:05:27.583Z,12.00
2023-03-21T16:08:01.637Z,11.90
2023-03-21T16:10:39.503Z,13.47
2023-03-21T16:13:10.799Z,12.17
2023-03-21T16:15:41.487Z,11.53
2023-03-21T16:18:12.112Z,12.23
2023-03-21T16:20:46.171Z,11.70
2023-03-21T16:23:17.870Z,11.20
2023-03-21T16:25:55.954Z,12.43
2023-03-21T16:28:26.463Z,11.20
2023-03-21T16:30:56.787Z,11.77
2023-03-21T16:33:28.153Z,12.00
2023-03-21T16:35:58.210Z,11.40
2023-03-21T16:38:28.035Z,11.60
2023-03-21T16:41:00.998Z,11.60
2023-03-21T16:43:31.093Z,10.30
2023-03-21T16:46:01.512Z,10.80
2023-03-21T16:48:31.522Z,10.87
2023-03-21T16:51:01.295Z,10.97
2023-03-21T16:53:31.908Z,11.20
2023-03-21T16:56:05.314Z,11.13
2023-03-21T16:58:35.703Z,11.90
2023-03-21T17:01:06.661Z,11.97
2023-03-21T17:03:38.633Z,15.87
2023-03-21T17:06:09.002Z,11.60
2023-03-21T17:08:39.906Z,11.93
2023-03-21T17:11:16.637Z,11.67
2023-03-21T17:13:47.131Z,11.40
2023-03-21T17:16:19.922Z,12.80
2023-03-21T17:18:50.963Z,11.33
2023-03-21T17:21:23.137Z,11.17
2023-03-21T17:23:54.118Z,10.80
2023-03-21T17:26:28.557Z,10.53
2023-03-21T17:29:00.239Z,10.77
2023-03-21T17:31:34.522Z,10.07
2023-03-21T17:34:05.553Z,10.80
2023-03-21T17:36:37.692Z,12.40
2023-03-21T17:39:10.032Z,11.60
2023-03-21T17:41:42.446Z,11.53
2023-03-21T17:44:12.854Z,12.17
2023-03-21T17:46:43.211Z,12.77
2023-03-21T17:49:16.881Z,12.70
2023-03-21T17:51:47.127Z,12.67
2023-03-21T17:54:17.711Z,12.50
2023-03-21T17:56:51.785Z,12.70
2023-03-21T17:59:22.132Z,14.03
2023-03-21T18:01:53.697Z,16.40
2023-03-21T18:04:23.629Z,13.20
2023-03-21T18:06:54.046Z,12.80
2023-03-21T18:09:24.401Z,11.27
2023-03-21T18:11:57.274Z,14.40
2023-03-21T18:14:29.107Z,13.60
2023-03-21T18:17:00.684Z,13.80
2023-03-21T18:19:34.746Z,13.53
2023-03-21T18:22:04.479Z,12.50
2023-03-21T18:24:34.305Z,12.47
2023-03-21T18:27:07.213Z,10.90
2023-03-21T18:30:22.163Z,11.30
2023-03-21T18:32:28.851Z,13.77
2023-03-21T18:35:00.816Z,15.03
2023-03-21T18:37:35.209Z,13.87
2023-03-21T18:40:10.820Z,18.47
2023-03-21T18:43:27.340Z,13.77
2023-03-21T18:45:34.602Z,15.03
2023-03-21T18:48:04.915Z,13.30
2023-03-21T18:50:34.779Z,15.10
2023-03-21T18:53:05.184Z,12.13
2023-03-21T18:55:45.362Z,14.87
2023-03-21T18:58:19.394Z,14.27
2023-03-21T19:00:49.861Z,14.47
2023-03-21T19:03:34.097Z,12.90
2023-03-21T19:06:07.557Z,16.50
2023-03-21T19:08:38.889Z,14.43
2023-03-21T19:11:10.431Z,13.57
2023-03-21T19:13:43.350Z,13.40
2023-03-21T19:16:13.462Z,11.40
2023-03-21T19:18:54.536Z,11.73
2023-03-21T19:21:27.708Z,12.97
2023-03-21T19:26:48.634Z,12.40
2023-03-21T19:29:22.148Z,13.07
2023-03-21T19:31:52.610Z,13.00
2023-03-21T19:34:22.684Z,12.53
2023-03-21T19:36:53.053Z,12.87
2023-03-21T19:39:25.949Z,11.57
2023-03-21T19:42:14.830Z,11.77
2023-03-21T19:44:49.062Z,11.40
2023-03-21T19:47:20.726Z,13.30
2023-03-21T19:52:46.175Z,9.23
2023-03-21T19:55:17.162Z,11.20
2023-03-21T19:57:49.207Z,10.03
2023-03-21T20:00:25.458Z,11.43
2023-03-21T20:02:56.745Z,9.60
2023-03-21T20:05:28.363Z,11.37
2023-03-21T20:07:58.512Z,11.70
2023-03-21T20:10:30.221Z,11.90
2023-03-21T20:13:00.306Z,11.50
2023-03-21T20:15:44.763Z,11.53
2023-03-21T20:18:17.178Z,12.60
2023-03-21T20:20:47.877Z,10.57
2023-03-21T20:23:17.803Z,10.00
2023-03-21T20:25:49.192Z,11.73
2023-03-21T20:28:25.872Z,13.00
2023-03-21T20:31:02.006Z,7.80
2023-03-21T20:33:32.968Z,11.77
2023-03-21T20:36:38.027Z,11.43
2023-03-21T20:38:55.849Z,10.80
2023-03-21T20:41:25.614Z,11.07
2023-03-21T20:46:53.960Z,8.53
2023-03-21T20:49:24.526Z,11.83
2023-03-21T20:54:46.041Z,10.90
2023-03-21T20:57:17.234Z,11.10
2023-03-21T20:59:47.824Z,11.23
2023-03-21T21:02:20.616Z,10.53
2023-03-21T21:05:21.457Z,11.00
2023-03-21T21:07:40.278Z,10.80
2023-03-21T21:10:12.686Z,11.00
2023-03-21T21:12:47.682Z,10.07
2023-03-21T21:15:18.472Z,11.03
2023-03-21T21:18:05.470Z,12.53
2023-03-21T21:20:37.631Z,12.17
2023-03-21T21:23:09.522Z,12.93
2023-03-21T21:28:11.857Z,10.97
2023-03-21T21:30:43.029Z,11.50
2023-03-21T21:33:17.990Z,13.00
2023-03-21T21:35:49.659Z,11.03
2023-03-21T21:38:20.781Z,13.63
2023-03-21T21:40:51.709Z,12.10
2023-03-21T21:43:23.016Z,14.30
2023-03-21T21:46:06.601Z,13.03
2023-03-21T21:48:38.929Z,12.93
2023-03-21T21:51:09.533Z,13.20
2023-03-21T21:53:40.932Z,13.53
2023-03-21T21:56:12.403Z,12.17
2023-03-21T21:58:48.895Z,12.57
2023-03-21T22:01:20.725Z,13.20
2023-03-21T22:03:53.510Z,11.53
2023-03-21T22:06:23.254Z,12.30
2023-03-21T22:08:53.330Z,11.87
2023-03-21T22:11:23.020Z,12.53
2023-03-21T22:13:53.566Z,12.30
2023-03-21T22:16:23.641Z,11.87
2023-03-21T22:18:56.180Z,13.00
2023-03-21T22:21:25.935Z,12.23
2023-03-21T22:23:56.196Z,12.60
2023-03-21T22:26:26.533Z,10.67
2023-03-21T22:28:56.478Z,12.77
2023-03-21T22:31:26.458Z,12.60
2023-03-21T22:33:59.386Z,13.50
2023-03-21T22:36:29.205Z,13.80
2023-03-21T22:38:58.924Z,13.60
2023-03-21T22:41:28.764Z,10.60
2023-03-21T22:43:59.164Z,14.57
2023-03-21T22:46:29.003Z,14.70
2023-03-21T22:49:01.975Z,11.93
2023-03-21T22:51:31.792Z,12.73
2023-03-21T22:54:02.285Z,14.90
2023-03-21T22:56:32.039Z,14.43
2023-03-21T22:59:01.956Z,11.63
2023-03-21T23:01:32.174Z,15.20
2023-03-21T23:04:04.775Z,14.43
2023-03-21T23:06:34.667Z,14.70
2023-03-21T23:09:04.644Z,13.40
2023-03-21T23:11:34.490Z,14.70
2023-03-21T23:14:08.072Z,14.90
2023-03-21T23:16:38.710Z,15.13
2023-03-21T23:19:12.057Z,12.30
2023-03-21T23:21:45.028Z,14.93
2023-03-21T23:24:15.091Z,13.33
2023-03-21T23:26:45.712Z,14.20
2023-03-21T23:29:15.946Z,14.03
2023-03-21T23:31:45.795Z,14.20
2023-03-21T23:34:18.839Z,15.53
2023-03-21T23:36:48.835Z,14.03
2023-03-21T23:39:20.260Z,15.20
2023-03-21T23:41:55.602Z,13.63
2023-03-21T23:44:26.439Z,15.40
2023-03-21T23:46:56.296Z,14.80
2023-03-21T23:49:29.441Z,14.93
2023-03-21T23:51:59.226Z,15.13
2023-03-21T23:54:29.111Z,11.87
2023-03-21T23:56:58.978Z,14.90
2023-03-21T23:59:30.588Z,16.27
